sensor_id;sensor_type;location;lat;lon;timestamp;P1;durP1;ratioP1;P2;durP2;ratioP2
81725;SDS011;71135;16.738;-14.648;2024-02-21T00:00:55;18.25;;;4.32;;
81725;SDS011;71135;16.738;-14.648;2024-02-21T00:03:24;15.70;;;3.60;;
81725;SDS011;71135;16.738;-14.648;2024-02-21T00:05:55;19.98;;;4.65;;
81725;SDS011;71135;16.738;-14.648;2024-02-21T00:08:24;16.42;;;4.38;;
81725;SDS011;71135;16.738;-14.648;2024-02-21T00:10:54;16.92;;;5.68;;
81725;SDS011;71135;16.738;-14.648;2024-02-21T00:13:23;16.05;;;6.97;;
81725;SDS011;71135;16.738;-14.648;2024-02-21T00:15:55;15.02;;;8.20;;
81725;SDS011;71135;16.738;-14.648;2024-02-21T00:18:27;18.52;;;9.02;;
81725;SDS011;71135;16.738;-14.648;2024-02-21T00:21:01;18.73;;;8.57;;
81725;SDS011;71135;16.738;-14.648;2024-02-21T00:23:30;26.13;;;10.63;;
81725;SDS011;71135;16.738;-14.648;2024-02-21T00:25:59;29.45;;;12.32;;
81725;SDS011;71135;16.738;-14.648;2024-02-21T00:31:13;30.52;;;14.77;;
81725;SDS011;71135;16.738;-14.648;2024-02-21T00:33:42;27.65;;;14.63;;
81725;SDS011;71135;16.738;-14.648;2024-02-21T00:36:16;28.23;;;11.95;;
81725;SDS011;71135;16.738;-14.648;2024-02-21T00:38:46;29.10;;;11.80;;
81725;SDS011;71135;16.738;-14.648;2024-02-21T00:41:16;25.80;;;11.15;;
81725;SDS011;71135;16.738;-14.648;2024-02-21T00:43:50;22.42;;;9.93;;
81725;SDS011;71135;16.738;-14.648;2024-02-21T00:46:22;20.25;;;11.00;;
81725;SDS011;71135;16.738;-14.648;2024-02-21T00:48:53;17.63;;;8.88;;
81725;SDS011;71135;16.738;-14.648;2024-02-21T00:51:23;19.02;;;9.43;;
81725;SDS011;71135;16.738;-14.648;2024-02-21T00:53:54;19.42;;;6.78;;
81725;SDS011;71135;16.738;-14.648;2024-02-21T00:56:24;16.83;;;5.78;;
81725;SDS011;71135;16.738;-14.648;2024-02-21T00:58:54;17.67;;;4.15;;
81725;SDS011;71135;16.738;-14.648;2024-02-21T01:01:26;13.98;;;4.00;;
81725;SDS011;71135;16.738;-14.648;2024-02-21T01:03:55;16.10;;;3.83;;
81725;SDS011;71135;16.738;-14.648;2024-02-21T01:06:26;19.42;;;4.82;;
81725;SDS011;71135;16.738;-14.648;2024-02-21T01:08:58;19.02;;;4.78;;
81725;SDS011;71135;16.738;-14.648;2024-02-21T01:11:27;14.50;;;3.63;;
81725;SDS011;71135;16.738;-14.648;2024-02-21T01:16:41;12.02;;;3.90;;
81725;SDS011;71135;16.738;-14.648;2024-02-21T01:19:10;18.52;;;4.25;;
81725;SDS011;71135;16.738;-14.648;2024-02-21T01:21:39;15.07;;;3.95;;
81725;SDS011;71135;16.738;-14.648;2024-02-21T01:24:08;19.08;;;4.20;;
81725;SDS011;71135;16.738;-14.648;2024-02-21T01:26:37;17.33;;;5.53;;
81725;SDS011;71135;16.738;-14.648;2024-02-21T01:29:06;21.30;;;4.95;;
81725;SDS011;71135;16.738;-14.648;2024-02-21T01:31:35;16.95;;;5.25;;
81725;SDS011;71135;16.738;-14.648;2024-02-21T01:34:07;17.30;;;4.80;;
81725;SDS011;71135;16.738;-14.648;2024-02-21T01:36:36;15.98;;;5.15;;
81725;SDS011;71135;16.738;-14.648;2024-02-21T01:39:07;15.30;;;5.32;;
81725;SDS011;71135;16.738;-14.648;2024-02-21T01:41:36;18.33;;;3.80;;
81725;SDS011;71135;16.738;-14.648;2024-02-21T01:44:05;21.25;;;4.00;;
81725;SDS011;71135;16.738;-14.648;2024-02-21T01:46:34;13.82;;;3.40;;
81725;SDS011;71135;16.738;-14.648;2024-02-21T01:49:03;14.38;;;3.47;;
81725;SDS011;71135;16.738;-14.648;2024-02-21T01:51:36;15.05;;;3.35;;
81725;SDS011;71135;16.738;-14.648;2024-02-21T01:54:06;13.25;;;2.90;;
81725;SDS011;71135;16.738;-14.648;2024-02-21T01:56:35;17.90;;;3.55;;
81725;SDS011;71135;16.738;-14.648;2024-02-21T01:59:04;10.40;;;3.60;;
81725;SDS011;71135;16.738;-14.648;2024-02-21T02:01:34;13.93;;;4.05;;
81725;SDS011;71135;16.738;-14.648;2024-02-21T02:04:03;19.88;;;4.75;;
81725;SDS011;71135;16.738;-14.648;2024-02-21T02:06:35;18.48;;;5.30;;
81725;SDS011;71135;16.738;-14.648;2024-02-21T02:09:04;11.27;;;5.03;;
81725;SDS011;71135;16.738;-14.648;2024-02-21T02:11:33;12.77;;;4.30;;
81725;SDS011;71135;16.738;-14.648;2024-02-21T02:14:03;15.05;;;4.72;;
81725;SDS011;71135;16.738;-14.648;2024-02-21T02:16:33;16.73;;;6.35;;
81725;SDS011;71135;16.738;-14.648;2024-02-21T02:19:02;28.52;;;6.97;;
81725;SDS011;71135;16.738;-14.648;2024-02-21T02:21:37;19.42;;;5.65;;
81725;SDS011;71135;16.738;-14.648;2024-02-21T02:24:12;15.63;;;5.47;;
81725;SDS011;71135;16.738;-14.648;2024-02-21T02:26:42;18.77;;;6.53;;
81725;SDS011;71135;16.738;-14.648;2024-02-21T02:29:12;22.88;;;6.10;;
81725;SDS011;71135;16.738;-14.648;2024-02-21T02:31:45;17.65;;;6.63;;
81725;SDS011;71135;16.738;-14.648;2024-02-21T02:34:14;21.08;;;6.63;;
81725;SDS011;71135;16.738;-14.648;2024-02-21T02:36:43;18.30;;;7.90;;
81725;SDS011;71135;16.738;-14.648;2024-02-21T02:39:17;21.67;;;6.43;;
81725;SDS011;71135;16.738;-14.648;2024-02-21T02:41:46;17.30;;;7.15;;
81725;SDS011;71135;16.738;-14.648;2024-02-21T02:44:15;21.27;;;6.90;;
81725;SDS011;71135;16.738;-14.648;2024-02-21T02:46:44;18.65;;;5.68;;
81725;SDS011;71135;16.738;-14.648;2024-02-21T02:49:16;16.80;;;5.88;;
81725;SDS011;71135;16.738;-14.648;2024-02-21T02:51:45;17.52;;;5.63;;
81725;SDS011;71135;16.738;-14.648;2024-02-21T02:54:17;13.98;;;4.28;;
81725;SDS011;71135;16.738;-14.648;2024-02-21T02:56:46;19.48;;;4.93;;
81725;SDS011;71135;16.738;-14.648;2024-02-21T02:59:15;16.25;;;5.47;;
81725;SDS011;71135;16.738;-14.648;2024-02-21T03:01:44;19.40;;;5.90;;
81725;SDS011;71135;16.738;-14.648;2024-02-21T03:04:13;15.70;;;5.18;;
81725;SDS011;71135;16.738;-14.648;2024-02-21T03:06:43;15.00;;;5.05;;
81725;SDS011;71135;16.738;-14.648;2024-02-21T03:09:12;14.50;;;4.32;;
81725;SDS011;71135;16.738;-14.648;2024-02-21T03:11:44;23.80;;;4.22;;
81725;SDS011;71135;16.738;-14.648;2024-02-21T03:14:13;13.18;;;3.00;;
81725;SDS011;71135;16.738;-14.648;2024-02-21T03:20:00;21.45;;;4.35;;
81725;SDS011;71135;16.738;-14.648;2024-02-21T03:22:30;13.10;;;3.10;;
81725;SDS011;71135;16.738;-14.648;2024-02-21T03:25:05;18.42;;;3.35;;
81725;SDS011;71135;16.738;-14.648;2024-02-21T03:27:38;13.77;;;3.42;;
81725;SDS011;71135;16.738;-14.648;2024-02-21T03:30:07;13.55;;;2.97;;
81725;SDS011;71135;16.738;-14.648;2024-02-21T03:32:38;15.63;;;4.28;;
81725;SDS011;71135;16.738;-14.648;2024-02-21T03:35:16;14.98;;;3.45;;
81725;SDS011;71135;16.738;-14.648;2024-02-21T03:37:59;12.93;;;3.83;;
81725;SDS011;71135;16.738;-14.648;2024-02-21T03:43:48;13.10;;;3.75;;
81725;SDS011;71135;16.738;-14.648;2024-02-21T03:46:18;17.23;;;4.43;;
81725;SDS011;71135;16.738;-14.648;2024-02-21T03:48:47;17.60;;;5.50;;
81725;SDS011;71135;16.738;-14.648;2024-02-21T03:51:16;18.52;;;4.63;;
81725;SDS011;71135;16.738;-14.648;2024-02-21T03:53:45;20.40;;;5.80;;
81725;SDS011;71135;16.738;-14.648;2024-02-21T03:56:14;18.73;;;6.00;;
81725;SDS011;71135;16.738;-14.648;2024-02-21T03:58:43;24.60;;;7.65;;
81725;SDS011;71135;16.738;-14.648;2024-02-21T04:01:15;19.42;;;6.88;;
81725;SDS011;71135;16.738;-14.648;2024-02-21T04:03:44;16.23;;;7.65;;
81725;SDS011;71135;16.738;-14.648;2024-02-21T04:06:14;16.95;;;7.22;;
81725;SDS011;71135;16.738;-14.648;2024-02-21T04:08:43;20.42;;;6.53;;
81725;SDS011;71135;16.738;-14.648;2024-02-21T04:11:13;17.58;;;6.75;;
81725;SDS011;71135;16.738;-14.648;2024-02-21T04:13:43;20.98;;;6.80;;
81725;SDS011;71135;16.738;-14.648;2024-02-21T04:16:17;19.15;;;6.75;;
81725;SDS011;71135;16.738;-14.648;2024-02-21T04:18:46;24.77;;;7.00;;
81725;SDS011;71135;16.738;-14.648;2024-02-21T04:21:16;16.00;;;4.65;;
81725;SDS011;71135;16.738;-14.648;2024-02-21T04:23:46;22.38;;;3.75;;
81725;SDS011;71135;16.738;-14.648;2024-02-21T04:26:15;16.63;;;3.47;;
81725;SDS011;71135;16.738;-14.648;2024-02-21T04:28:44;15.07;;;3.38;;
81725;SDS011;71135;16.738;-14.648;2024-02-21T04:31:13;14.70;;;2.30;;
81725;SDS011;71135;16.738;-14.648;2024-02-21T04:33:45;12.10;;;2.75;;
81725;SDS011;71135;16.738;-14.648;2024-02-21T04:36:14;11.43;;;2.35;;
81725;SDS011;71135;16.738;-14.648;2024-02-21T04:38:44;11.90;;;2.72;;
81725;SDS011;71135;16.738;-14.648;2024-02-21T04:41:14;15.85;;;2.63;;
81725;SDS011;71135;16.738;-14.648;2024-02-21T04:43:43;19.42;;;3.10;;
81725;SDS011;71135;16.738;-14.648;2024-02-21T04:46:17;19.27;;;3.30;;
81725;SDS011;71135;16.738;-14.648;2024-02-21T04:48:46;14.70;;;3.67;;
81725;SDS011;71135;16.738;-14.648;2024-02-21T04:51:15;12.93;;;2.80;;
81725;SDS011;71135;16.738;-14.648;2024-02-21T04:53:44;11.80;;;2.67;;
81725;SDS011;71135;16.738;-14.648;2024-02-21T04:56:14;20.95;;;3.10;;
81725;SDS011;71135;16.738;-14.648;2024-02-21T04:58:43;12.23;;;3.00;;
81725;SDS011;71135;16.738;-14.648;2024-02-21T05:01:12;14.90;;;3.65;;
81725;SDS011;71135;16.738;-14.648;2024-02-21T05:03:44;16.15;;;2.75;;
81725;SDS011;71135;16.738;-14.648;2024-02-21T05:06:13;18.13;;;3.55;;
81725;SDS011;71135;16.738;-14.648;2024-02-21T05:08:42;18.42;;;3.20;;
81725;SDS011;71135;16.738;-14.648;2024-02-21T05:11:11;10.52;;;2.70;;
81725;SDS011;71135;16.738;-14.648;2024-02-21T05:13:41;15.43;;;3.53;;
81725;SDS011;71135;16.738;-14.648;2024-02-21T05:16:10;12.35;;;3.03;;
81725;SDS011;71135;16.738;-14.648;2024-02-21T05:18:40;14.30;;;3.15;;
81725;SDS011;71135;16.738;-14.648;2024-02-21T05:21:12;13.80;;;2.90;;
81725;SDS011;71135;16.738;-14.648;2024-02-21T05:23:41;18.52;;;4.28;;
81725;SDS011;71135;16.738;-14.648;2024-02-21T05:26:10;11.75;;;3.70;;
81725;SDS011;71135;16.738;-14.648;2024-02-21T05:28:40;14.63;;;3.42;;
81725;SDS011;71135;16.738;-14.648;2024-02-21T05:31:09;17.52;;;4.10;;
81725;SDS011;71135;16.738;-14.648;2024-02-21T05:33:40;18.75;;;4.32;;
81725;SDS011;71135;16.738;-14.648;2024-02-21T05:36:11;11.60;;;4.55;;
81725;SDS011;71135;16.738;-14.648;2024-02-21T05:38:41;13.63;;;3.70;;
81725;SDS011;71135;16.738;-14.648;2024-02-21T05:41:10;13.98;;;4.10;;
81725;SDS011;71135;16.738;-14.648;2024-02-21T05:43:40;10.50;;;4.18;;
81725;SDS011;71135;16.738;-14.648;2024-02-21T05:46:09;16.08;;;4.68;;
81725;SDS011;71135;16.738;-14.648;2024-02-21T05:48:38;11.88;;;4.15;;
81725;SDS011;71135;16.738;-14.648;2024-02-21T05:51:07;15.63;;;4.28;;
81725;SDS011;71135;16.738;-14.648;2024-02-21T05:53:40;10.70;;;4.22;;
81725;SDS011;71135;16.738;-14.648;2024-02-21T05:56:09;18.10;;;4.35;;
81725;SDS011;71135;16.738;-14.648;2024-02-21T05:58:39;12.27;;;5.55;;
81725;SDS011;71135;16.738;-14.648;2024-02-21T06:01:11;15.48;;;4.97;;
81725;SDS011;71135;16.738;-14.648;2024-02-21T06:03:40;11.68;;;4.57;;
81725;SDS011;71135;16.738;-14.648;2024-02-21T06:06:09;10.85;;;5.45;;
81725;SDS011;71135;16.738;-14.648;2024-02-21T06:11:43;11.27;;;6.80;;
81725;SDS011;71135;16.738;-14.648;2024-02-21T06:14:14;13.73;;;6.80;;
81725;SDS011;71135;16.738;-14.648;2024-02-21T06:16:43;18.33;;;7.90;;
81725;SDS011;71135;16.738;-14.648;2024-02-21T06:19:13;13.40;;;7.20;;
81725;SDS011;71135;16.738;-14.648;2024-02-21T06:21:42;16.85;;;6.82;;
81725;SDS011;71135;16.738;-14.648;2024-02-21T06:24:11;17.83;;;7.68;;
81725;SDS011;71135;16.738;-14.648;2024-02-21T06:26:40;18.10;;;8.35;;
81725;SDS011;71135;16.738;-14.648;2024-02-21T06:29:12;14.23;;;8.18;;
81725;SDS011;71135;16.738;-14.648;2024-02-21T06:31:41;14.73;;;7.63;;
81725;SDS011;71135;16.738;-14.648;2024-02-21T06:34:11;16.50;;;8.23;;
81725;SDS011;71135;16.738;-14.648;2024-02-21T06:36:40;16.88;;;8.35;;
81725;SDS011;71135;16.738;-14.648;2024-02-21T06:39:09;19.42;;;10.05;;
81725;SDS011;71135;16.738;-14.648;2024-02-21T06:41:38;15.70;;;8.20;;
81725;SDS011;71135;16.738;-14.648;2024-02-21T06:44:10;20.23;;;8.07;;
81725;SDS011;71135;16.738;-14.648;2024-02-21T06:46:39;17.80;;;8.80;;
81725;SDS011;71135;16.738;-14.648;2024-02-21T06:49:08;16.83;;;8.15;;
81725;SDS011;71135;16.738;-14.648;2024-02-21T06:51:41;16.35;;;8.95;;
81725;SDS011;71135;16.738;-14.648;2024-02-21T06:54:10;18.92;;;9.20;;
81725;SDS011;71135;16.738;-14.648;2024-02-21T06:56:40;21.05;;;8.50;;
81725;SDS011;71135;16.738;-14.648;2024-02-21T06:59:12;18.42;;;8.75;;
81725;SDS011;71135;16.738;-14.648;2024-02-21T07:01:44;16.83;;;8.85;;
81725;SDS011;71135;16.738;-14.648;2024-02-21T07:04:13;16.20;;;8.73;;
81725;SDS011;71135;16.738;-14.648;2024-02-21T07:06:43;16.77;;;9.38;;
81725;SDS011;71135;16.738;-14.648;2024-02-21T07:09:12;17.08;;;9.18;;
81725;SDS011;71135;16.738;-14.648;2024-02-21T07:11:41;20.67;;;10.40;;
81725;SDS011;71135;16.738;-14.648;2024-02-21T07:14:13;15.57;;;8.65;;
81725;SDS011;71135;16.738;-14.648;2024-02-21T07:16:43;16.45;;;9.45;;
81725;SDS011;71135;16.738;-14.648;2024-02-21T07:19:12;14.60;;;8.85;;
81725;SDS011;71135;16.738;-14.648;2024-02-21T07:21:42;17.27;;;9.07;;
81725;SDS011;71135;16.738;-14.648;2024-02-21T07:24:11;22.38;;;9.43;;
81725;SDS011;71135;16.738;-14.648;2024-02-21T07:26:41;16.83;;;8.90;;
81725;SDS011;71135;16.738;-14.648;2024-02-21T07:29:13;17.08;;;8.93;;
81725;SDS011;71135;16.738;-14.648;2024-02-21T07:31:43;18.70;;;9.00;;
81725;SDS011;71135;16.738;-14.648;2024-02-21T07:34:14;28.55;;;9.27;;
81725;SDS011;71135;16.738;-14.648;2024-02-21T07:36:43;14.63;;;9.05;;
81725;SDS011;71135;16.738;-14.648;2024-02-21T07:39:12;19.10;;;8.70;;
81725;SDS011;71135;16.738;-14.648;2024-02-21T07:41:42;14.48;;;7.97;;
81725;SDS011;71135;16.738;-14.648;2024-02-21T07:44:15;18.38;;;10.13;;
81725;SDS011;71135;16.738;-14.648;2024-02-21T07:46:44;19.55;;;8.85;;
81725;SDS011;71135;16.738;-14.648;2024-02-21T07:49:13;16.20;;;9.20;;
81725;SDS011;71135;16.738;-14.648;2024-02-21T07:51:42;24.42;;;9.90;;
81725;SDS011;71135;16.738;-14.648;2024-02-21T07:54:11;19.67;;;10.00;;
81725;SDS011;71135;16.738;-14.648;2024-02-21T07:56:41;14.43;;;9.77;;
81725;SDS011;71135;16.738;-14.648;2024-02-21T07:59:10;18.55;;;10.23;;
81725;SDS011;71135;16.738;-14.648;2024-02-21T08:01:42;16.33;;;9.60;;
81725;SDS011;71135;16.738;-14.648;2024-02-21T08:04:12;20.58;;;9.93;;
81725;SDS011;71135;16.738;-14.648;2024-02-21T08:06:41;17.55;;;10.30;;
81725;SDS011;71135;16.738;-14.648;2024-02-21T08:09:10;20.42;;;10.30;;
81725;SDS011;71135;16.738;-14.648;2024-02-21T08:11:39;16.27;;;10.32;;
81725;SDS011;71135;16.738;-14.648;2024-02-21T08:14:09;15.48;;;8.82;;
81725;SDS011;71135;16.738;-14.648;2024-02-21T08:16:38;18.23;;;9.45;;
81725;SDS011;71135;16.738;-14.648;2024-02-21T08:19:10;23.17;;;10.75;;
81725;SDS011;71135;16.738;-14.648;2024-02-21T08:21:39;20.10;;;10.57;;
81725;SDS011;71135;16.738;-14.648;2024-02-21T08:24:08;18.88;;;9.50;;
81725;SDS011;71135;16.738;-14.648;2024-02-21T08:26:39;20.13;;;10.40;;
81725;SDS011;71135;16.738;-14.648;2024-02-21T08:29:10;15.45;;;10.32;;
81725;SDS011;71135;16.738;-14.648;2024-02-21T08:31:40;21.15;;;10.00;;
81725;SDS011;71135;16.738;-14.648;2024-02-21T08:34:11;16.52;;;9.35;;
81725;SDS011;71135;16.738;-14.648;2024-02-21T08:36:41;19.55;;;10.10;;
81725;SDS011;71135;16.738;-14.648;2024-02-21T08:39:10;20.38;;;10.88;;
81725;SDS011;71135;16.738;-14.648;2024-02-21T08:41:42;13.85;;;9.55;;
81725;SDS011;71135;16.738;-14.648;2024-02-21T08:44:11;19.90;;;9.27;;
81725;SDS011;71135;16.738;-14.648;2024-02-21T08:46:41;16.95;;;9.80;;
81725;SDS011;71135;16.738;-14.648;2024-02-21T08:49:12;17.80;;;10.25;;
81725;SDS011;71135;16.738;-14.648;2024-02-21T08:51:42;17.45;;;9.98;;
81725;SDS011;71135;16.738;-14.648;2024-02-21T08:54:12;22.40;;;10.63;;
81725;SDS011;71135;16.738;-14.648;2024-02-21T08:56:41;20.02;;;10.68;;
81725;SDS011;71135;16.738;-14.648;2024-02-21T08:59:10;21.63;;;10.40;;
81725;SDS011;71135;16.738;-14.648;2024-02-21T09:01:41;16.20;;;9.52;;
81725;SDS011;71135;16.738;-14.648;2024-02-21T09:04:13;16.58;;;9.55;;
81725;SDS011;71135;16.738;-14.648;2024-02-21T09:06:42;20.40;;;10.27;;
81725;SDS011;71135;16.738;-14.648;2024-02-21T09:09:12;19.25;;;10.43;;
81725;SDS011;71135;16.738;-14.648;2024-02-21T09:11:45;17.92;;;10.82;;
81725;SDS011;71135;16.738;-14.648;2024-02-21T09:14:14;14.40;;;9.40;;
81725;SDS011;71135;16.738;-14.648;2024-02-21T09:16:43;20.27;;;10.82;;
81725;SDS011;71135;16.738;-14.648;2024-02-21T09:19:16;18.30;;;10.18;;
81725;SDS011;71135;16.738;-14.648;2024-02-21T09:21:45;17.52;;;10.52;;
81725;SDS011;71135;16.738;-14.648;2024-02-21T09:24:14;19.80;;;11.30;;
81725;SDS011;71135;16.738;-14.648;2024-02-21T09:26:43;19.67;;;11.10;;
81725;SDS011;71135;16.738;-14.648;2024-02-21T09:29:13;19.50;;;11.00;;
81725;SDS011;71135;16.738;-14.648;2024-02-21T09:31:42;19.10;;;10.48;;
81725;SDS011;71135;16.738;-14.648;2024-02-21T09:34:18;17.17;;;10.30;;
81725;SDS011;71135;16.738;-14.648;2024-02-21T09:36:47;15.98;;;9.00;;
81725;SDS011;71135;16.738;-14.648;2024-02-21T09:39:16;16.02;;;10.13;;
81725;SDS011;71135;16.738;-14.648;2024-02-21T09:41:48;19.08;;;9.73;;
81725;SDS011;71135;16.738;-14.648;2024-02-21T09:44:23;16.20;;;9.75;;
81725;SDS011;71135;16.738;-14.648;2024-02-21T09:47:02;18.50;;;10.07;;
81725;SDS011;71135;16.738;-14.648;2024-02-21T09:49:35;18.38;;;10.40;;
81725;SDS011;71135;16.738;-14.648;2024-02-21T09:52:05;18.50;;;10.00;;
81725;SDS011;71135;16.738;-14.648;2024-02-21T09:54:34;16.65;;;10.15;;
81725;SDS011;71135;16.738;-14.648;2024-02-21T09:57:04;16.10;;;8.93;;
81725;SDS011;71135;16.738;-14.648;2024-02-21T09:59:34;21.23;;;10.82;;
81725;SDS011;71135;16.738;-14.648;2024-02-21T10:02:03;15.00;;;8.95;;
81725;SDS011;71135;16.738;-14.648;2024-02-21T10:04:35;21.52;;;10.48;;
81725;SDS011;71135;16.738;-14.648;2024-02-21T10:07:04;19.48;;;11.30;;
81725;SDS011;71135;16.738;-14.648;2024-02-21T10:09:34;24.33;;;11.25;;
81725;SDS011;71135;16.738;-14.648;2024-02-21T10:12:07;16.55;;;9.05;;
81725;SDS011;71135;16.738;-14.648;2024-02-21T10:14:37;18.35;;;10.10;;
81725;SDS011;71135;16.738;-14.648;2024-02-21T10:17:06;16.27;;;9.45;;
81725;SDS011;71135;16.738;-14.648;2024-02-21T10:19:47;15.60;;;10.13;;
81725;SDS011;71135;16.738;-14.648;2024-02-21T10:22:17;17.00;;;9.98;;
81725;SDS011;71135;16.738;-14.648;2024-02-21T10:24:47;17.17;;;8.90;;
81725;SDS011;71135;16.738;-14.648;2024-02-21T10:27:16;15.68;;;8.43;;
81725;SDS011;71135;16.738;-14.648;2024-02-21T10:29:48;15.07;;;8.85;;
81725;SDS011;71135;16.738;-14.648;2024-02-21T10:32:18;12.00;;;7.85;;
81725;SDS011;71135;16.738;-14.648;2024-02-21T10:35:00;18.50;;;8.60;;
81725;SDS011;71135;16.738;-14.648;2024-02-21T10:37:30;13.55;;;7.97;;
81725;SDS011;71135;16.738;-14.648;2024-02-21T10:40:00;15.80;;;8.75;;
81725;SDS011;71135;16.738;-14.648;2024-02-21T10:42:30;13.23;;;7.88;;
81725;SDS011;71135;16.738;-14.648;2024-02-21T10:45:02;13.52;;;6.45;;
81725;SDS011;71135;16.738;-14.648;2024-02-21T10:47:35;10.55;;;6.28;;
81725;SDS011;71135;16.738;-14.648;2024-02-21T10:50:10;8.07;;;4.97;;
81725;SDS011;71135;16.738;-14.648;2024-02-21T10:52:45;9.07;;;6.45;;
81725;SDS011;71135;16.738;-14.648;2024-02-21T10:55:25;10.88;;;6.80;;
81725;SDS011;71135;16.738;-14.648;2024-02-21T10:58:00;8.35;;;5.00;;
81725;SDS011;71135;16.738;-14.648;2024-02-21T11:00:30;10.88;;;5.85;;
81725;SDS011;71135;16.738;-14.648;2024-02-21T11:03:01;10.10;;;6.15;;
81725;SDS011;71135;16.738;-14.648;2024-02-21T11:05:33;7.82;;;5.45;;
81725;SDS011;71135;16.738;-14.648;2024-02-21T11:08:03;9.60;;;5.63;;
81725;SDS011;71135;16.738;-14.648;2024-02-21T11:10:36;10.65;;;5.70;;
81725;SDS011;71135;16.738;-14.648;2024-02-21T11:13:07;8.35;;;5.13;;
81725;SDS011;71135;16.738;-14.648;2024-02-21T11:15:36;10.80;;;5.75;;
81725;SDS011;71135;16.738;-14.648;2024-02-21T11:18:05;8.93;;;5.30;;
81725;SDS011;71135;16.738;-14.648;2024-02-21T11:20:37;8.85;;;5.07;;
81725;SDS011;71135;16.738;-14.648;2024-02-21T11:23:07;9.13;;;5.35;;
81725;SDS011;71135;16.738;-14.648;2024-02-21T11:25:36;8.10;;;5.07;;
81725;SDS011;71135;16.738;-14.648;2024-02-21T11:28:05;8.95;;;5.28;;
81725;SDS011;71135;16.738;-14.648;2024-02-21T11:30:35;8.35;;;5.00;;
81725;SDS011;71135;16.738;-14.648;2024-02-21T11:33:05;9.82;;;5.10;;
81725;SDS011;71135;16.738;-14.648;2024-02-21T11:35:37;10.82;;;5.75;;
81725;SDS011;71135;16.738;-14.648;2024-02-21T11:38:07;13.10;;;5.15;;
81725;SDS011;71135;16.738;-14.648;2024-02-21T11:40:40;7.93;;;4.82;;
81725;SDS011;71135;16.738;-14.648;2024-02-21T11:43:10;7.50;;;5.38;;
81725;SDS011;71135;16.738;-14.648;2024-02-21T11:45:39;9.13;;;4.57;;
81725;SDS011;71135;16.738;-14.648;2024-02-21T11:48:08;12.52;;;4.88;;
81725;SDS011;71135;16.738;-14.648;2024-02-21T11:50:40;6.68;;;4.50;;
81725;SDS011;71135;16.738;-14.648;2024-02-21T11:53:09;6.65;;;4.72;;
81725;SDS011;71135;16.738;-14.648;2024-02-21T11:55:38;10.10;;;4.53;;
81725;SDS011;71135;16.738;-14.648;2024-02-21T11:58:07;8.57;;;3.80;;
81725;SDS011;71135;16.738;-14.648;2024-02-21T12:00:36;5.97;;;4.50;;
81725;SDS011;71135;16.738;-14.648;2024-02-21T12:03:06;6.45;;;3.92;;
81725;SDS011;71135;16.738;-14.648;2024-02-21T12:05:36;9.23;;;4.65;;
81725;SDS011;71135;16.738;-14.648;2024-02-21T12:08:08;6.68;;;4.32;;
81725;SDS011;71135;16.738;-14.648;2024-02-21T12:10:37;6.57;;;4.80;;
81725;SDS011;71135;16.738;-14.648;2024-02-21T12:13:06;7.70;;;4.70;;
81725;SDS011;71135;16.738;-14.648;2024-02-21T12:15:38;8.32;;;5.15;;
81725;SDS011;71135;16.738;-14.648;2024-02-21T12:18:09;8.20;;;4.75;;
81725;SDS011;71135;16.738;-14.648;2024-02-21T12:20:38;7.72;;;5.53;;
81725;SDS011;71135;16.738;-14.648;2024-02-21T12:23:11;9.80;;;5.63;;
81725;SDS011;71135;16.738;-14.648;2024-02-21T12:25:40;7.95;;;5.80;;
81725;SDS011;71135;16.738;-14.648;2024-02-21T12:28:09;10.20;;;6.68;;
81725;SDS011;71135;16.738;-14.648;2024-02-21T12:30:38;7.57;;;5.80;;
81725;SDS011;71135;16.738;-14.648;2024-02-21T12:33:08;7.25;;;5.28;;
81725;SDS011;71135;16.738;-14.648;2024-02-21T12:35:38;8.13;;;5.82;;
81725;SDS011;71135;16.738;-14.648;2024-02-21T12:38:07;7.43;;;5.97;;
81725;SDS011;71135;16.738;-14.648;2024-02-21T12:40:39;7.50;;;5.40;;
81725;SDS011;71135;16.738;-14.648;2024-02-21T12:43:08;8.98;;;5.03;;
81725;SDS011;71135;16.738;-14.648;2024-02-21T12:45:38;7.93;;;5.43;;
81725;SDS011;71135;16.738;-14.648;2024-02-21T12:48:07;9.07;;;5.75;;
81725;SDS011;71135;16.738;-14.648;2024-02-21T12:50:36;11.27;;;6.25;;
81725;SDS011;71135;16.738;-14.648;2024-02-21T12:53:05;9.63;;;5.55;;
81725;SDS011;71135;16.738;-14.648;2024-02-21T12:55:37;7.32;;;5.15;;
81725;SDS011;71135;16.738;-14.648;2024-02-21T12:58:06;9.98;;;4.85;;
81725;SDS011;71135;16.738;-14.648;2024-02-21T13:00:35;6.78;;;4.50;;
81725;SDS011;71135;16.738;-14.648;2024-02-21T13:03:04;8.68;;;5.55;;
81725;SDS011;71135;16.738;-14.648;2024-02-21T13:05:35;8.95;;;5.45;;
81725;SDS011;71135;16.738;-14.648;2024-02-21T13:08:04;8.77;;;5.47;;
81725;SDS011;71135;16.738;-14.648;2024-02-21T13:10:37;8.52;;;5.63;;
81725;SDS011;71135;16.738;-14.648;2024-02-21T13:13:06;6.72;;;5.28;;
81725;SDS011;71135;16.738;-14.648;2024-02-21T13:15:35;8.63;;;5.93;;
81725;SDS011;71135;16.738;-14.648;2024-02-21T13:18:08;7.78;;;4.68;;
81725;SDS011;71135;16.738;-14.648;2024-02-21T13:20:38;6.70;;;5.35;;
81725;SDS011;71135;16.738;-14.648;2024-02-21T13:23:07;10.93;;;6.25;;
81725;SDS011;71135;16.738;-14.648;2024-02-21T13:25:39;8.00;;;5.25;;
81725;SDS011;71135;16.738;-14.648;2024-02-21T13:28:09;8.82;;;5.32;;
81725;SDS011;71135;16.738;-14.648;2024-02-21T13:30:40;7.20;;;5.05;;
81725;SDS011;71135;16.738;-14.648;2024-02-21T13:33:09;6.72;;;5.53;;
81725;SDS011;71135;16.738;-14.648;2024-02-21T13:35:38;8.75;;;5.32;;
81725;SDS011;71135;16.738;-14.648;2024-02-21T13:38:08;11.95;;;5.30;;
81725;SDS011;71135;16.738;-14.648;2024-02-21T13:40:40;9.95;;;4.78;;
81725;SDS011;71135;16.738;-14.648;2024-02-21T13:43:10;10.85;;;5.03;;
81725;SDS011;71135;16.738;-14.648;2024-02-21T13:45:40;7.45;;;5.03;;
81725;SDS011;71135;16.738;-14.648;2024-02-21T13:48:09;7.35;;;5.55;;
81725;SDS011;71135;16.738;-14.648;2024-02-21T13:50:40;6.15;;;4.82;;
81725;SDS011;71135;16.738;-14.648;2024-02-21T13:53:10;8.73;;;5.25;;
81725;SDS011;71135;16.738;-14.648;2024-02-21T13:55:41;8.90;;;5.30;;
81725;SDS011;71135;16.738;-14.648;2024-02-21T13:58:11;8.35;;;4.57;;
81725;SDS011;71135;16.738;-14.648;2024-02-21T14:00:40;7.10;;;5.00;;
81725;SDS011;71135;16.738;-14.648;2024-02-21T14:03:09;9.48;;;5.22;;
81725;SDS011;71135;16.738;-14.648;2024-02-21T14:05:38;9.40;;;5.25;;
81725;SDS011;71135;16.738;-14.648;2024-02-21T14:08:07;6.53;;;4.68;;
81725;SDS011;71135;16.738;-14.648;2024-02-21T14:10:36;5.75;;;4.60;;
81725;SDS011;71135;16.738;-14.648;2024-02-21T14:13:08;10.25;;;4.95;;
81725;SDS011;71135;16.738;-14.648;2024-02-21T14:15:37;6.15;;;4.00;;
81725;SDS011;71135;16.738;-14.648;2024-02-21T14:18:06;8.77;;;5.00;;
81725;SDS011;71135;16.738;-14.648;2024-02-21T14:20:36;9.38;;;5.03;;
81725;SDS011;71135;16.738;-14.648;2024-02-21T14:23:05;8.27;;;4.45;;
81725;SDS011;71135;16.738;-14.648;2024-02-21T14:25:34;10.00;;;3.92;;
81725;SDS011;71135;16.738;-14.648;2024-02-21T14:28:05;11.00;;;4.93;;
81725;SDS011;71135;16.738;-14.648;2024-02-21T14:30:37;6.95;;;3.55;;
81725;SDS011;71135;16.738;-14.648;2024-02-21T14:33:06;8.20;;;4.43;;
81725;SDS011;71135;16.738;-14.648;2024-02-21T14:35:35;8.02;;;4.38;;
81725;SDS011;71135;16.738;-14.648;2024-02-21T14:38:05;8.10;;;3.75;;
81725;SDS011;71135;16.738;-14.648;2024-02-21T14:40:34;7.97;;;4.25;;
81725;SDS011;71135;16.738;-14.648;2024-02-21T14:43:04;11.35;;;3.85;;